createdAt,value
2019-05-22T00:00:22.109Z,35.27
2019-05-22T00:04:25.212Z,35.93
2019-05-22T00:08:26.960Z,35.70
2019-05-22T00:12:28.200Z,38.47
2019-05-22T00:16:30.993Z,36.60
2019-05-22T00:20:32.963Z,37.80
2019-05-22T00:24:34.753Z,38.03
2019-05-22T00:28:37.959Z,38.43
2019-05-22T00:32:39.074Z,37.30
2019-05-22T00:36:40.167Z,33.90
2019-05-22T00:40:51.881Z,35.27
2019-05-22T00:44:53.679Z,36.10
2019-05-22T00:48:54.839Z,36.43
2019-05-22T00:53:06.759Z,32.43
2019-05-22T00:57:12.305Z,31.33
2019-05-22T01:01:21.192Z,30.33
2019-05-22T01:05:22.667Z,31.73
2019-05-22T01:09:25.542Z,31.60
2019-05-22T01:13:32.410Z,32.97
2019-05-22T01:17:36.197Z,31.97
2019-05-22T01:21:39.106Z,31.90
2019-05-22T01:25:42.368Z,28.67
2019-05-22T01:29:45.357Z,28.60
2019-05-22T01:33:51.446Z,31.47
2019-05-22T01:37:54.253Z,31.17
2019-05-22T01:41:56.443Z,30.73
2019-05-22T01:46:01.960Z,27.93
2019-05-22T01:50:06.158Z,27.10
2019-05-22T01:54:08.199Z,29.17
2019-05-22T01:58:11.892Z,29.17
2019-05-22T02:02:13.873Z,27.37
2019-05-22T02:06:17.343Z,26.80
2019-05-22T02:10:37.408Z,27.07
2019-05-22T02:14:43.960Z,25.97
2019-05-22T02:18:47.440Z,23.97
2019-05-22T02:22:49.342Z,23.33
2019-05-22T02:26:50.423Z,23.70
2019-05-22T02:30:53.420Z,25.43
2019-05-22T02:34:56.073Z,26.03
2019-05-22T02:38:57.078Z,25.93
2019-05-22T02:42:58.141Z,27.17
2019-05-22T02:47:16.985Z,28.80
2019-05-22T02:51:04.030Z,29.37
2019-05-22T02:55:06.319Z,26.27
2019-05-22T02:59:08.230Z,29.50
2019-05-22T03:03:09.386Z,31.37
2019-05-22T03:07:11.054Z,34.20
2019-05-22T03:11:14.302Z,34.53
2019-05-22T03:15:15.767Z,34.67
2019-05-22T03:19:40.526Z,37.97
2019-05-22T03:23:41.510Z,37.90
2019-05-22T03:27:49.569Z,36.13
2019-05-22T03:31:50.801Z,36.83
2019-05-22T03:35:55.515Z,36.67
2019-05-22T03:39:56.700Z,37.00
2019-05-22T03:43:57.781Z,35.40
2019-05-22T03:48:02.877Z,35.97
2019-05-22T03:52:05.766Z,33.07
2019-05-22T03:56:07.543Z,36.37
2019-05-22T04:00:13.346Z,36.57
2019-05-22T04:04:19.416Z,33.07
2019-05-22T04:08:20.702Z,35.13
2019-05-22T04:12:21.839Z,35.17
2019-05-22T04:16:26.994Z,33.47
2019-05-22T04:20:28.167Z,31.57
2019-05-22T04:24:30.447Z,32.73
2019-05-22T04:28:34.159Z,33.17
2019-05-22T04:32:36.759Z,30.83
2019-05-22T04:36:39.633Z,29.37
2019-05-22T04:40:46.120Z,29.33
2019-05-22T04:45:13.776Z,27.53
2019-05-22T04:49:15.529Z,26.77
2019-05-22T04:53:16.507Z,24.00
2019-05-22T04:57:17.498Z,26.13
2019-05-22T05:01:19.566Z,21.83
2019-05-22T05:05:24.205Z,22.83
2019-05-22T05:09:25.315Z,20.60
2019-05-22T05:13:26.174Z,19.90
2019-05-22T05:17:27.557Z,20.17
2019-05-22T05:21:28.666Z,18.10
2019-05-22T05:25:29.826Z,18.20
2019-05-22T05:29:31.720Z,16.07
2019-05-22T05:33:37.318Z,16.33
2019-05-22T05:37:40.109Z,14.67
2019-05-22T05:41:41.085Z,15.50
2019-05-22T05:45:44.202Z,12.67
2019-05-22T05:49:45.315Z,14.63
2019-05-22T05:53:56.362Z,13.70
2019-05-22T05:58:17.872Z,11.93
2019-05-22T06:02:19.827Z,10.97
2019-05-22T06:06:26.442Z,12.67
2019-05-22T06:10:37.397Z,10.67
2019-05-22T06:14:40.691Z,11.33
2019-05-22T06:18:42.006Z,11.27
2019-05-22T06:22:46.689Z,10.90
2019-05-22T06:26:55.182Z,11.00
2019-05-22T06:31:00.665Z,10.20
2019-05-22T06:35:02.763Z,9.57
2019-05-22T06:39:07.378Z,10.73
2019-05-22T06:43:24.968Z,9.03
2019-05-22T06:47:27.034Z,8.40
2019-05-22T06:51:28.005Z,7.70
2019-05-22T06:55:28.862Z,7.00
2019-05-22T06:59:29.850Z,6.83
2019-05-22T07:03:31.312Z,7.33
2019-05-22T07:07:32.988Z,7.07
2019-05-22T07:11:34.864Z,8.37
2019-05-22T07:15:38.351Z,8.30
2019-05-22T07:19:39.923Z,9.50
2019-05-22T07:23:41.403Z,7.93
2019-05-22T07:27:42.948Z,6.40
2019-05-22T07:31:45.100Z,5.77
2019-05-22T07:36:07.596Z,5.47
2019-05-22T07:39:49.373Z,5.70
2019-05-22T07:43:50.450Z,7.07
2019-05-22T07:47:52.065Z,5.23
2019-05-22T07:52:00.561Z,6.00
2019-05-22T07:55:57.705Z,7.00
2019-05-22T07:59:59.350Z,6.50
2019-05-22T08:04:01.567Z,5.97
2019-05-22T08:08:03.544Z,5.33
2019-05-22T08:12:08.190Z,5.50
2019-05-22T08:16:09.968Z,5.57
2019-05-22T08:20:12.105Z,6.70
2019-05-22T08:24:13.079Z,8.27
2019-05-22T08:28:14.177Z,8.17
2019-05-22T08:32:15.560Z,6.47
2019-05-22T08:36:16.665Z,6.27
2019-05-22T08:40:19.540Z,7.27
2019-05-22T08:44:20.814Z,7.90
2019-05-22T08:48:23.079Z,8.03
2019-05-22T08:52:24.775Z,12.17
2019-05-22T08:56:29.930Z,12.87
2019-05-22T09:00:31.208Z,11.97
2019-05-22T09:04:32.271Z,13.57
2019-05-22T09:08:34.160Z,15.07
2019-05-22T09:12:35.560Z,19.80
2019-05-22T09:16:36.836Z,20.93
2019-05-22T09:20:48.642Z,21.80
2019-05-22T09:24:42.742Z,22.17
2019-05-22T09:28:44.046Z,22.90
2019-05-22T09:32:47.521Z,21.73
2019-05-22T09:36:47.953Z,18.03
2019-05-22T09:40:49.517Z,15.97
2019-05-22T09:44:50.496Z,15.17
2019-05-22T09:48:51.646Z,13.73
2019-05-22T09:52:57.584Z,13.60
2019-05-22T09:56:55.873Z,12.23
2019-05-22T10:00:56.935Z,12.63
2019-05-22T10:04:58.211Z,11.20
2019-05-22T10:08:59.483Z,11.60
2019-05-22T10:13:01.043Z,12.27
2019-05-22T10:17:02.386Z,12.83
2019-05-22T10:21:04.016Z,13.33
2019-05-22T10:25:15.474Z,16.00
2019-05-22T10:29:08.836Z,18.33
2019-05-22T10:33:09.920Z,17.37
2019-05-22T10:37:12.674Z,23.70
2019-05-22T10:41:15.187Z,22.57
2019-05-22T10:45:16.397Z,22.47
2019-05-22T10:49:17.714Z,24.20
2019-05-22T10:53:32.455Z,21.83
2019-05-22T10:57:21.793Z,23.30
2019-05-22T11:01:22.973Z,23.43
2019-05-22T11:05:24.359Z,21.53
2019-05-22T11:09:25.959Z,22.63
2019-05-22T11:13:27.169Z,23.80
2019-05-22T11:17:28.972Z,19.73
2019-05-22T11:21:31.348Z,22.03
2019-05-22T11:25:33.084Z,21.80
2019-05-22T11:29:34.607Z,21.30
2019-05-22T11:33:35.574Z,21.47
2019-05-22T11:37:36.499Z,20.07
2019-05-22T11:41:37.927Z,21.80
2019-05-22T11:45:39.515Z,19.63
2019-05-22T11:49:40.652Z,19.60
2019-05-22T11:53:42.249Z,18.77
2019-05-22T11:57:44.480Z,17.67
2019-05-22T12:01:45.991Z,19.30
2019-05-22T12:05:47.202Z,19.50
2019-05-22T12:09:48.442Z,18.70
2019-05-22T12:13:50.744Z,19.23
2019-05-22T12:17:52.360Z,19.07
2019-05-22T12:21:53.564Z,19.20
2019-05-22T12:25:54.813Z,18.97
2019-05-22T12:29:56.712Z,19.63
2019-05-22T12:33:59.099Z,19.47
2019-05-22T12:38:00.856Z,20.03
2019-05-22T12:42:02.633Z,18.60
2019-05-22T12:46:03.706Z,18.80
2019-05-22T12:50:06.223Z,18.57
2019-05-22T12:54:07.219Z,16.93
2019-05-22T12:58:09.114Z,18.47
2019-05-22T13:02:10.347Z,18.73
2019-05-22T13:06:11.419Z,19.03
2019-05-22T13:10:13.933Z,18.80
2019-05-22T13:14:14.938Z,17.67
2019-05-22T13:18:18.228Z,16.33
2019-05-22T13:22:23.592Z,19.47
2019-05-22T13:26:25.124Z,19.23
2019-05-22T13:30:28.783Z,21.07
2019-05-22T13:34:30.043Z,18.57
2019-05-22T13:38:31.555Z,18.93
2019-05-22T13:42:32.625Z,19.90
2019-05-22T13:46:34.500Z,18.03
2019-05-22T13:50:36.133Z,18.37
2019-05-22T13:54:38.831Z,20.07
2019-05-22T13:58:40.650Z,19.10
2019-05-22T14:02:41.721Z,18.07
2019-05-22T14:06:42.643Z,17.13
2019-05-22T14:10:44.249Z,19.10
2019-05-22T14:14:45.353Z,17.33
2019-05-22T14:18:46.408Z,17.77
2019-05-22T14:22:47.560Z,16.30
2019-05-22T14:26:49.431Z,15.73
2019-05-22T14:30:51.099Z,16.50
2019-05-22T14:34:52.151Z,16.57
2019-05-22T14:38:54.635Z,15.80
2019-05-22T14:42:55.647Z,16.90
2019-05-22T14:47:11.854Z,14.60
2019-05-22T14:51:00.058Z,14.77
2019-05-22T14:55:01.313Z,13.77
2019-05-22T14:59:04.120Z,14.07
2019-05-22T15:03:05.870Z,13.63
2019-05-22T15:07:10.137Z,15.20
2019-05-22T15:11:11.271Z,13.83
2019-05-22T15:15:12.931Z,14.73
2019-05-22T15:19:14.018Z,15.70
2019-05-22T15:23:15.522Z,15.13
2019-05-22T15:27:20.003Z,15.47
2019-05-22T15:31:23.217Z,13.80
2019-05-22T15:35:24.768Z,14.10
2019-05-22T15:39:28.271Z,15.90
2019-05-22T15:43:29.606Z,14.67
2019-05-22T15:47:42.222Z,14.47
2019-05-22T15:51:36.412Z,14.93
2019-05-22T15:55:39.525Z,15.53
2019-05-22T15:59:42.752Z,14.87
2019-05-22T16:03:46.163Z,14.50
2019-05-22T16:07:48.765Z,15.20
2019-05-22T16:11:52.065Z,13.67
2019-05-22T16:15:57.560Z,14.50
2019-05-22T16:19:59.252Z,14.73
2019-05-22T16:24:00.557Z,13.83
2019-05-22T16:28:03.491Z,13.90
2019-05-22T16:32:07.340Z,15.17
2019-05-22T16:36:09.670Z,13.00
2019-05-22T16:40:11.466Z,13.07
2019-05-22T16:44:12.998Z,13.47
2019-05-22T16:48:27.828Z,14.77
2019-05-22T16:52:18.151Z,12.53
2019-05-22T16:56:21.089Z,12.00
2019-05-22T17:00:22.621Z,14.63
2019-05-22T17:04:24.327Z,14.53
2019-05-22T17:08:26.965Z,14.23
2019-05-22T17:12:28.207Z,13.10
2019-05-22T17:16:30.181Z,12.47
2019-05-22T17:20:33.581Z,13.50
2019-05-22T17:24:35.709Z,12.23
2019-05-22T17:28:37.443Z,13.67
2019-05-22T17:32:38.947Z,13.97
2019-05-22T17:36:40.938Z,13.73
2019-05-22T17:40:42.083Z,13.37
2019-05-22T17:44:46.494Z,14.57
2019-05-22T17:48:48.586Z,13.60
2019-05-22T17:52:49.911Z,13.43
2019-05-22T17:56:51.071Z,16.10
2019-05-22T18:00:53.593Z,14.13
2019-05-22T18:04:54.756Z,14.40
2019-05-22T18:08:55.767Z,13.80
2019-05-22T18:12:57.079Z,14.30
2019-05-22T18:16:58.267Z,15.17
2019-05-22T18:20:59.172Z,15.53
2019-05-22T18:25:00.664Z,14.13
2019-05-22T18:29:01.782Z,15.60
2019-05-22T18:33:03.130Z,15.23
2019-05-22T18:37:04.251Z,14.57
2019-05-22T18:41:05.370Z,14.60
2019-05-22T18:45:07.135Z,16.07
2019-05-22T18:49:08.140Z,13.47
2019-05-22T18:53:09.275Z,15.93
2019-05-22T18:57:10.175Z,16.27
2019-05-22T19:01:11.549Z,16.87
2019-05-22T19:05:15.954Z,17.07
2019-05-22T19:09:17.151Z,18.37
2019-05-22T19:13:18.230Z,15.47
2019-05-22T19:17:19.992Z,15.87
2019-05-22T19:21:20.974Z,15.90
2019-05-22T19:25:22.045Z,17.17
2019-05-22T19:29:23.411Z,19.07
2019-05-22T19:33:24.544Z,19.30
2019-05-22T19:37:25.530Z,19.55
2019-05-22T19:41:26.916Z,19.97
2019-05-22T19:45:30.900Z,20.73
2019-05-22T19:49:31.495Z,18.67
2019-05-22T19:53:33.129Z,20.07
2019-05-22T19:57:34.381Z,21.47
2019-05-22T20:01:37.179Z,20.40
2019-05-22T20:05:39.239Z,18.33
2019-05-22T20:09:41.143Z,21.87
2019-05-22T20:13:42.560Z,20.60
2019-05-22T20:17:44.436Z,20.23
2019-05-22T20:21:46.734Z,21.00
2019-05-22T20:25:48.658Z,19.70
2019-05-22T20:29:50.263Z,20.07
2019-05-22T20:33:51.959Z,20.30
2019-05-22T20:37:53.338Z,20.73
2019-05-22T20:41:54.354Z,21.00
2019-05-22T20:45:57.446Z,20.63
2019-05-22T20:49:59.231Z,20.40
2019-05-22T20:54:02.141Z,19.33
2019-05-22T20:58:05.211Z,20.57
2019-05-22T21:02:08.506Z,22.57
2019-05-22T21:06:12.100Z,20.93
2019-05-22T21:10:13.288Z,22.90
2019-05-22T21:14:14.842Z,21.00
2019-05-22T21:18:18.449Z,22.87
2019-05-22T21:22:20.560Z,23.23
2019-05-22T21:26:22.372Z,21.47
2019-05-22T21:30:25.452Z,23.70
2019-05-22T21:34:26.652Z,24.40
2019-05-22T21:38:28.672Z,25.43
2019-05-22T21:42:30.415Z,23.43
2019-05-22T21:46:32.236Z,23.57
2019-05-22T21:50:33.294Z,22.13
2019-05-22T21:54:35.486Z,23.40
2019-05-22T21:58:37.163Z,22.40
2019-05-22T22:02:41.958Z,23.20
2019-05-22T22:06:43.297Z,22.53
2019-05-22T22:10:44.954Z,24.00
2019-05-22T22:14:47.937Z,22.27
2019-05-22T22:18:49.341Z,22.83
2019-05-22T22:22:51.318Z,21.20
2019-05-22T22:26:52.614Z,23.00
2019-05-22T22:30:56.666Z,22.13
2019-05-22T22:34:58.331Z,21.97
2019-05-22T22:38:59.542Z,21.10
2019-05-22T22:43:02.926Z,22.17
2019-05-22T22:47:06.266Z,20.53
2019-05-22T22:51:09.181Z,20.77
2019-05-22T22:55:12.428Z,21.70
2019-05-22T22:59:13.496Z,20.93
2019-05-22T23:03:22.668Z,22.33
2019-05-22T23:07:26.176Z,26.33
2019-05-22T23:11:27.868Z,22.77
2019-05-22T23:15:29.333Z,24.13
2019-05-22T23:19:37.897Z,27.67
2019-05-22T23:23:40.159Z,25.93
2019-05-22T23:27:42.127Z,22.73
2019-05-22T23:31:43.613Z,25.73
2019-05-22T23:35:45.413Z,24.93
2019-05-22T23:39:47.092Z,23.80
2019-05-22T23:43:48.159Z,25.30
2019-05-22T23:48:03.142Z,25.13
2019-05-22T23:52:06.152Z,23.77
2019-05-22T23:56:08.253Z,25.23
